sensor_id;sensor_type;location;lat;lon;timestamp;P1;durP1;ratioP1;P2;durP2;ratioP2
6197;SDS011;3132;42.622;23.328;2024-02-14T00:00:02;15.30;;;14.00;;
6197;SDS011;3132;42.622;23.328;2024-02-14T00:02:28;14.90;;;13.23;;
6197;SDS011;3132;42.622;23.328;2024-02-14T00:04:53;14.03;;;12.83;;
6197;SDS011;3132;42.622;23.328;2024-02-14T00:07:19;15.40;;;14.07;;
6197;SDS011;3132;42.622;23.328;2024-02-14T00:09:45;15.73;;;14.47;;
6197;SDS011;3132;42.622;23.328;2024-02-14T00:12:11;15.13;;;14.03;;
6197;SDS011;3132;42.622;23.328;2024-02-14T00:14:37;14.63;;;13.33;;
6197;SDS011;3132;42.622;23.328;2024-02-14T00:17:03;15.23;;;14.03;;
6197;SDS011;3132;42.622;23.328;2024-02-14T00:19:30;14.33;;;13.13;;
6197;SDS011;3132;42.622;23.328;2024-02-14T00:21:55;14.83;;;13.47;;
6197;SDS011;3132;42.622;23.328;2024-02-14T00:24:21;15.23;;;13.97;;
6197;SDS011;3132;42.622;23.328;2024-02-14T00:26:47;14.67;;;13.47;;
6197;SDS011;3132;42.622;23.328;2024-02-14T00:29:14;15.37;;;14.07;;
6197;SDS011;3132;42.622;23.328;2024-02-14T00:31:39;15.87;;;14.57;;
6197;SDS011;3132;42.622;23.328;2024-02-14T00:34:04;15.27;;;13.77;;
6197;SDS011;3132;42.622;23.328;2024-02-14T00:36:30;16.47;;;15.07;;
6197;SDS011;3132;42.622;23.328;2024-02-14T00:38:55;15.70;;;14.53;;
6197;SDS011;3132;42.622;23.328;2024-02-14T00:41:20;16.60;;;15.20;;
6197;SDS011;3132;42.622;23.328;2024-02-14T00:43:46;15.07;;;13.83;;
6197;SDS011;3132;42.622;23.328;2024-02-14T00:46:17;14.97;;;13.70;;
6197;SDS011;3132;42.622;23.328;2024-02-14T00:48:43;14.90;;;13.60;;
6197;SDS011;3132;42.622;23.328;2024-02-14T00:51:09;15.60;;;14.33;;
6197;SDS011;3132;42.622;23.328;2024-02-14T00:53:35;14.73;;;13.37;;
6197;SDS011;3132;42.622;23.328;2024-02-14T00:56:00;15.93;;;14.73;;
6197;SDS011;3132;42.622;23.328;2024-02-14T00:58:25;14.30;;;13.20;;
6197;SDS011;3132;42.622;23.328;2024-02-14T01:00:51;14.13;;;12.87;;
6197;SDS011;3132;42.622;23.328;2024-02-14T01:03:16;14.47;;;13.37;;
6197;SDS011;3132;42.622;23.328;2024-02-14T01:05:42;15.30;;;14.03;;
6197;SDS011;3132;42.622;23.328;2024-02-14T01:08:08;15.67;;;14.30;;
6197;SDS011;3132;42.622;23.328;2024-02-14T01:10:33;15.40;;;14.10;;
6197;SDS011;3132;42.622;23.328;2024-02-14T01:12:58;14.30;;;13.10;;
6197;SDS011;3132;42.622;23.328;2024-02-14T01:15:24;15.50;;;14.20;;
6197;SDS011;3132;42.622;23.328;2024-02-14T01:17:49;13.83;;;12.80;;
6197;SDS011;3132;42.622;23.328;2024-02-14T01:20:15;14.97;;;13.70;;
6197;SDS011;3132;42.622;23.328;2024-02-14T01:22:40;14.57;;;13.53;;
6197;SDS011;3132;42.622;23.328;2024-02-14T01:25:06;15.67;;;14.17;;
6197;SDS011;3132;42.622;23.328;2024-02-14T01:27:32;15.00;;;13.80;;
6197;SDS011;3132;42.622;23.328;2024-02-14T01:29:57;14.97;;;13.77;;
6197;SDS011;3132;42.622;23.328;2024-02-14T01:32:23;14.00;;;12.90;;
6197;SDS011;3132;42.622;23.328;2024-02-14T01:34:48;16.57;;;15.07;;
6197;SDS011;3132;42.622;23.328;2024-02-14T01:37:14;14.67;;;13.47;;
6197;SDS011;3132;42.622;23.328;2024-02-14T01:39:39;15.50;;;14.07;;
6197;SDS011;3132;42.622;23.328;2024-02-14T01:42:04;15.07;;;13.87;;
6197;SDS011;3132;42.622;23.328;2024-02-14T01:44:32;16.23;;;14.47;;
6197;SDS011;3132;42.622;23.328;2024-02-14T01:46:58;15.63;;;14.23;;
6197;SDS011;3132;42.622;23.328;2024-02-14T01:49:24;15.47;;;14.13;;
6197;SDS011;3132;42.622;23.328;2024-02-14T01:51:53;15.67;;;14.23;;
6197;SDS011;3132;42.622;23.328;2024-02-14T01:54:24;15.53;;;14.33;;
6197;SDS011;3132;42.622;23.328;2024-02-14T01:56:51;16.20;;;14.70;;
6197;SDS011;3132;42.622;23.328;2024-02-14T01:59:17;15.37;;;14.03;;
6197;SDS011;3132;42.622;23.328;2024-02-14T02:01:43;16.30;;;14.73;;
6197;SDS011;3132;42.622;23.328;2024-02-14T02:04:08;15.73;;;14.23;;
6197;SDS011;3132;42.622;23.328;2024-02-14T02:06:34;14.60;;;13.50;;
6197;SDS011;3132;42.622;23.328;2024-02-14T02:09:00;15.63;;;14.33;;
6197;SDS011;3132;42.622;23.328;2024-02-14T02:11:26;14.40;;;13.33;;
6197;SDS011;3132;42.622;23.328;2024-02-14T02:13:51;14.00;;;12.73;;
6197;SDS011;3132;42.622;23.328;2024-02-14T02:16:17;15.00;;;13.70;;
6197;SDS011;3132;42.622;23.328;2024-02-14T02:18:44;15.23;;;13.87;;
6197;SDS011;3132;42.622;23.328;2024-02-14T02:21:10;14.40;;;13.20;;
6197;SDS011;3132;42.622;23.328;2024-02-14T02:23:38;13.87;;;12.73;;
6197;SDS011;3132;42.622;23.328;2024-02-14T02:26:03;15.53;;;14.13;;
6197;SDS011;3132;42.622;23.328;2024-02-14T02:28:29;15.43;;;14.13;;
6197;SDS011;3132;42.622;23.328;2024-02-14T02:30:54;14.30;;;13.13;;
6197;SDS011;3132;42.622;23.328;2024-02-14T02:33:20;13.27;;;12.23;;
6197;SDS011;3132;42.622;23.328;2024-02-14T02:35:46;14.57;;;13.27;;
6197;SDS011;3132;42.622;23.328;2024-02-14T02:38:12;15.87;;;14.23;;
6197;SDS011;3132;42.622;23.328;2024-02-14T02:40:37;15.20;;;13.80;;
6197;SDS011;3132;42.622;23.328;2024-02-14T02:43:03;14.77;;;13.57;;
6197;SDS011;3132;42.622;23.328;2024-02-14T02:45:28;15.40;;;14.10;;
6197;SDS011;3132;42.622;23.328;2024-02-14T02:47:54;14.50;;;13.30;;
6197;SDS011;3132;42.622;23.328;2024-02-14T02:50:20;15.17;;;13.97;;
6197;SDS011;3132;42.622;23.328;2024-02-14T02:52:46;16.30;;;14.90;;
6197;SDS011;3132;42.622;23.328;2024-02-14T02:55:12;15.43;;;14.33;;
6197;SDS011;3132;42.622;23.328;2024-02-14T02:57:39;15.37;;;14.07;;
6197;SDS011;3132;42.622;23.328;2024-02-14T03:00:06;15.47;;;14.17;;
6197;SDS011;3132;42.622;23.328;2024-02-14T03:02:32;14.10;;;13.00;;
6197;SDS011;3132;42.622;23.328;2024-02-14T03:04:59;16.37;;;14.97;;
6197;SDS011;3132;42.622;23.328;2024-02-14T03:07:25;14.57;;;13.47;;
6197;SDS011;3132;42.622;23.328;2024-02-14T03:09:50;15.57;;;14.00;;
6197;SDS011;3132;42.622;23.328;2024-02-14T03:12:16;15.50;;;14.27;;
6197;SDS011;3132;42.622;23.328;2024-02-14T03:14:43;15.70;;;14.50;;
6197;SDS011;3132;42.622;23.328;2024-02-14T03:17:09;15.40;;;14.10;;
6197;SDS011;3132;42.622;23.328;2024-02-14T03:19:35;14.23;;;13.07;;
6197;SDS011;3132;42.622;23.328;2024-02-14T03:22:04;14.40;;;13.30;;
6197;SDS011;3132;42.622;23.328;2024-02-14T03:24:30;14.90;;;13.40;;
6197;SDS011;3132;42.622;23.328;2024-02-14T03:26:56;14.53;;;13.37;;
6197;SDS011;3132;42.622;23.328;2024-02-14T03:29:21;16.17;;;14.77;;
6197;SDS011;3132;42.622;23.328;2024-02-14T03:31:47;16.03;;;14.73;;
6197;SDS011;3132;42.622;23.328;2024-02-14T03:34:13;14.23;;;13.03;;
6197;SDS011;3132;42.622;23.328;2024-02-14T03:36:38;15.83;;;14.53;;
6197;SDS011;3132;42.622;23.328;2024-02-14T03:39:04;15.80;;;14.43;;
6197;SDS011;3132;42.622;23.328;2024-02-14T03:41:30;15.73;;;14.43;;
6197;SDS011;3132;42.622;23.328;2024-02-14T03:43:56;15.17;;;13.93;;
6197;SDS011;3132;42.622;23.328;2024-02-14T03:46:25;16.43;;;15.13;;
6197;SDS011;3132;42.622;23.328;2024-02-14T03:48:51;15.57;;;14.37;;
6197;SDS011;3132;42.622;23.328;2024-02-14T03:51:17;15.00;;;13.80;;
6197;SDS011;3132;42.622;23.328;2024-02-14T03:53:44;18.17;;;16.77;;
6197;SDS011;3132;42.622;23.328;2024-02-14T03:56:09;14.77;;;13.70;;
6197;SDS011;3132;42.622;23.328;2024-02-14T03:58:35;16.77;;;15.27;;
6197;SDS011;3132;42.622;23.328;2024-02-14T04:01:02;15.43;;;14.13;;
6197;SDS011;3132;42.622;23.328;2024-02-14T04:03:28;15.03;;;13.87;;
6197;SDS011;3132;42.622;23.328;2024-02-14T04:05:54;15.77;;;14.57;;
6197;SDS011;3132;42.622;23.328;2024-02-14T04:08:20;15.97;;;14.57;;
6197;SDS011;3132;42.622;23.328;2024-02-14T04:10:45;15.03;;;13.83;;
6197;SDS011;3132;42.622;23.328;2024-02-14T04:13:11;15.00;;;13.80;;
6197;SDS011;3132;42.622;23.328;2024-02-14T04:15:36;15.00;;;13.77;;
6197;SDS011;3132;42.622;23.328;2024-02-14T04:18:02;15.80;;;14.40;;
6197;SDS011;3132;42.622;23.328;2024-02-14T04:20:28;14.70;;;13.47;;
6197;SDS011;3132;42.622;23.328;2024-02-14T04:22:54;16.20;;;14.73;;
6197;SDS011;3132;42.622;23.328;2024-02-14T04:25:20;16.90;;;15.40;;
6197;SDS011;3132;42.622;23.328;2024-02-14T04:27:46;16.27;;;14.70;;
6197;SDS011;3132;42.622;23.328;2024-02-14T04:30:11;16.57;;;15.23;;
6197;SDS011;3132;42.622;23.328;2024-02-14T04:32:37;16.60;;;15.20;;
6197;SDS011;3132;42.622;23.328;2024-02-14T04:35:02;16.97;;;15.57;;
6197;SDS011;3132;42.622;23.328;2024-02-14T04:37:28;16.57;;;15.07;;
6197;SDS011;3132;42.622;23.328;2024-02-14T04:39:54;17.67;;;16.23;;
6197;SDS011;3132;42.622;23.328;2024-02-14T04:42:19;17.47;;;15.83;;
6197;SDS011;3132;42.622;23.328;2024-02-14T04:44:45;15.63;;;14.33;;
6197;SDS011;3132;42.622;23.328;2024-02-14T04:47:11;17.80;;;15.37;;
6197;SDS011;3132;42.622;23.328;2024-02-14T04:49:36;18.57;;;16.77;;
6197;SDS011;3132;42.622;23.328;2024-02-14T04:52:01;15.87;;;14.57;;
6197;SDS011;3132;42.622;23.328;2024-02-14T04:54:27;17.37;;;15.60;;
6197;SDS011;3132;42.622;23.328;2024-02-14T04:56:53;18.13;;;15.90;;
6197;SDS011;3132;42.622;23.328;2024-02-14T04:59:19;17.73;;;16.17;;
6197;SDS011;3132;42.622;23.328;2024-02-14T05:01:44;17.50;;;15.90;;
6197;SDS011;3132;42.622;23.328;2024-02-14T05:04:09;16.67;;;15.13;;
6197;SDS011;3132;42.622;23.328;2024-02-14T05:06:35;16.53;;;15.07;;
6197;SDS011;3132;42.622;23.328;2024-02-14T05:09:01;16.60;;;15.17;;
6197;SDS011;3132;42.622;23.328;2024-02-14T05:11:26;17.50;;;15.97;;
6197;SDS011;3132;42.622;23.328;2024-02-14T05:13:52;17.83;;;16.23;;
6197;SDS011;3132;42.622;23.328;2024-02-14T05:16:18;16.43;;;15.03;;
6197;SDS011;3132;42.622;23.328;2024-02-14T05:18:43;17.30;;;15.80;;
6197;SDS011;3132;42.622;23.328;2024-02-14T05:21:09;16.93;;;15.33;;
6197;SDS011;3132;42.622;23.328;2024-02-14T05:23:34;18.23;;;16.67;;
6197;SDS011;3132;42.622;23.328;2024-02-14T05:26:01;17.27;;;15.87;;
6197;SDS011;3132;42.622;23.328;2024-02-14T05:28:27;18.50;;;16.90;;
6197;SDS011;3132;42.622;23.328;2024-02-14T05:30:53;17.63;;;16.03;;
6197;SDS011;3132;42.622;23.328;2024-02-14T05:33:19;18.07;;;16.50;;
6197;SDS011;3132;42.622;23.328;2024-02-14T05:35:47;17.97;;;16.03;;
6197;SDS011;3132;42.622;23.328;2024-02-14T05:38:16;17.77;;;16.17;;
6197;SDS011;3132;42.622;23.328;2024-02-14T05:40:44;17.57;;;15.97;;
6197;SDS011;3132;42.622;23.328;2024-02-14T05:43:10;17.77;;;16.17;;
6197;SDS011;3132;42.622;23.328;2024-02-14T05:45:36;18.27;;;16.57;;
6197;SDS011;3132;42.622;23.328;2024-02-14T05:48:01;18.37;;;16.53;;
6197;SDS011;3132;42.622;23.328;2024-02-14T05:50:27;18.13;;;16.60;;
6197;SDS011;3132;42.622;23.328;2024-02-14T05:52:52;17.70;;;16.10;;
6197;SDS011;3132;42.622;23.328;2024-02-14T05:55:18;17.90;;;16.30;;
6197;SDS011;3132;42.622;23.328;2024-02-14T05:57:43;18.80;;;17.00;;
6197;SDS011;3132;42.622;23.328;2024-02-14T06:00:09;18.57;;;16.77;;
6197;SDS011;3132;42.622;23.328;2024-02-14T06:02:35;18.30;;;16.70;;
6197;SDS011;3132;42.622;23.328;2024-02-14T06:05:01;17.43;;;15.57;;
6197;SDS011;3132;42.622;23.328;2024-02-14T06:07:26;17.90;;;16.43;;
6197;SDS011;3132;42.622;23.328;2024-02-14T06:09:53;16.97;;;15.37;;
6197;SDS011;3132;42.622;23.328;2024-02-14T06:12:18;18.03;;;16.60;;
6197;SDS011;3132;42.622;23.328;2024-02-14T06:14:43;19.20;;;17.47;;
6197;SDS011;3132;42.622;23.328;2024-02-14T06:17:09;18.53;;;16.83;;
6197;SDS011;3132;42.622;23.328;2024-02-14T06:19:34;17.70;;;16.30;;
6197;SDS011;3132;42.622;23.328;2024-02-14T06:22:01;19.03;;;17.23;;
6197;SDS011;3132;42.622;23.328;2024-02-14T06:24:26;18.03;;;16.37;;
6197;SDS011;3132;42.622;23.328;2024-02-14T06:26:51;18.80;;;17.07;;
6197;SDS011;3132;42.622;23.328;2024-02-14T06:29:17;17.97;;;16.17;;
6197;SDS011;3132;42.622;23.328;2024-02-14T06:31:42;17.17;;;15.53;;
6197;SDS011;3132;42.622;23.328;2024-02-14T06:34:07;16.67;;;15.17;;
6197;SDS011;3132;42.622;23.328;2024-02-14T06:36:33;16.97;;;15.53;;
6197;SDS011;3132;42.622;23.328;2024-02-14T06:38:58;17.63;;;16.23;;
6197;SDS011;3132;42.622;23.328;2024-02-14T06:41:24;16.77;;;15.20;;
6197;SDS011;3132;42.622;23.328;2024-02-14T06:43:49;17.83;;;16.23;;
6197;SDS011;3132;42.622;23.328;2024-02-14T06:46:15;17.93;;;16.40;;
6197;SDS011;3132;42.622;23.328;2024-02-14T06:48:40;16.97;;;15.43;;
6197;SDS011;3132;42.622;23.328;2024-02-14T06:51:06;17.30;;;15.87;;
6197;SDS011;3132;42.622;23.328;2024-02-14T06:53:32;17.20;;;15.43;;
6197;SDS011;3132;42.622;23.328;2024-02-14T06:55:57;17.77;;;16.00;;
6197;SDS011;3132;42.622;23.328;2024-02-14T06:58:22;17.60;;;16.00;;
6197;SDS011;3132;42.622;23.328;2024-02-14T07:00:48;15.60;;;14.20;;
6197;SDS011;3132;42.622;23.328;2024-02-14T07:03:13;16.70;;;15.33;;
6197;SDS011;3132;42.622;23.328;2024-02-14T07:05:38;16.63;;;15.33;;
6197;SDS011;3132;42.622;23.328;2024-02-14T07:08:04;17.53;;;16.03;;
6197;SDS011;3132;42.622;23.328;2024-02-14T07:10:30;18.23;;;16.70;;
6197;SDS011;3132;42.622;23.328;2024-02-14T07:12:55;16.83;;;15.43;;
6197;SDS011;3132;42.622;23.328;2024-02-14T07:15:21;16.57;;;15.17;;
6197;SDS011;3132;42.622;23.328;2024-02-14T07:17:47;16.47;;;15.23;;
6197;SDS011;3132;42.622;23.328;2024-02-14T07:20:13;16.17;;;14.87;;
6197;SDS011;3132;42.622;23.328;2024-02-14T07:22:38;15.60;;;14.50;;
6197;SDS011;3132;42.622;23.328;2024-02-14T07:25:04;16.67;;;15.27;;
6197;SDS011;3132;42.622;23.328;2024-02-14T07:27:30;15.90;;;14.60;;
6197;SDS011;3132;42.622;23.328;2024-02-14T07:29:55;15.93;;;14.50;;
6197;SDS011;3132;42.622;23.328;2024-02-14T07:32:21;16.67;;;15.27;;
6197;SDS011;3132;42.622;23.328;2024-02-14T07:34:46;17.87;;;16.20;;
6197;SDS011;3132;42.622;23.328;2024-02-14T07:37:12;16.87;;;15.27;;
6197;SDS011;3132;42.622;23.328;2024-02-14T07:39:37;16.00;;;14.60;;
6197;SDS011;3132;42.622;23.328;2024-02-14T07:42:03;16.50;;;15.17;;
6197;SDS011;3132;42.622;23.328;2024-02-14T07:44:28;17.80;;;16.30;;
6197;SDS011;3132;42.622;23.328;2024-02-14T07:46:54;14.60;;;13.50;;
6197;SDS011;3132;42.622;23.328;2024-02-14T07:49:19;15.80;;;14.57;;
6197;SDS011;3132;42.622;23.328;2024-02-14T07:51:45;16.30;;;15.00;;
6197;SDS011;3132;42.622;23.328;2024-02-14T07:54:10;15.60;;;14.03;;
6197;SDS011;3132;42.622;23.328;2024-02-14T07:56:36;15.10;;;13.80;;
6197;SDS011;3132;42.622;23.328;2024-02-14T07:59:01;16.33;;;14.77;;
6197;SDS011;3132;42.622;23.328;2024-02-14T08:01:27;16.43;;;14.93;;
6197;SDS011;3132;42.622;23.328;2024-02-14T08:03:53;18.07;;;16.53;;
6197;SDS011;3132;42.622;23.328;2024-02-14T08:06:19;16.17;;;14.57;;
6197;SDS011;3132;42.622;23.328;2024-02-14T08:08:45;17.43;;;15.83;;
6197;SDS011;3132;42.622;23.328;2024-02-14T08:11:10;17.37;;;15.77;;
6197;SDS011;3132;42.622;23.328;2024-02-14T08:13:35;17.83;;;16.27;;
6197;SDS011;3132;42.622;23.328;2024-02-14T08:16:04;17.33;;;15.53;;
6197;SDS011;3132;42.622;23.328;2024-02-14T08:18:30;17.13;;;15.63;;
6197;SDS011;3132;42.622;23.328;2024-02-14T08:20:55;15.27;;;14.03;;
6197;SDS011;3132;42.622;23.328;2024-02-14T08:23:21;16.53;;;15.13;;
6197;SDS011;3132;42.622;23.328;2024-02-14T08:25:46;17.53;;;16.10;;
6197;SDS011;3132;42.622;23.328;2024-02-14T08:28:11;16.03;;;14.53;;
6197;SDS011;3132;42.622;23.328;2024-02-14T08:30:37;17.17;;;15.47;;
6197;SDS011;3132;42.622;23.328;2024-02-14T08:33:03;16.50;;;15.10;;
6197;SDS011;3132;42.622;23.328;2024-02-14T08:35:28;17.30;;;15.67;;
6197;SDS011;3132;42.622;23.328;2024-02-14T08:37:54;17.00;;;15.60;;
6197;SDS011;3132;42.622;23.328;2024-02-14T08:40:20;16.77;;;15.37;;
6197;SDS011;3132;42.622;23.328;2024-02-14T08:42:45;16.37;;;14.97;;
6197;SDS011;3132;42.622;23.328;2024-02-14T08:45:10;16.53;;;15.13;;
6197;SDS011;3132;42.622;23.328;2024-02-14T08:47:36;16.03;;;14.57;;
6197;SDS011;3132;42.622;23.328;2024-02-14T08:50:01;17.20;;;15.80;;
6197;SDS011;3132;42.622;23.328;2024-02-14T08:52:29;17.10;;;15.80;;
6197;SDS011;3132;42.622;23.328;2024-02-14T08:54:54;15.23;;;14.00;;
6197;SDS011;3132;42.622;23.328;2024-02-14T08:57:19;16.60;;;15.40;;
6197;SDS011;3132;42.622;23.328;2024-02-14T08:59:45;18.27;;;16.37;;
6197;SDS011;3132;42.622;23.328;2024-02-14T09:02:13;17.40;;;15.93;;
6197;SDS011;3132;42.622;23.328;2024-02-14T09:04:38;15.93;;;14.53;;
6197;SDS011;3132;42.622;23.328;2024-02-14T09:07:05;17.83;;;16.23;;
6197;SDS011;3132;42.622;23.328;2024-02-14T09:09:31;15.30;;;13.90;;
6197;SDS011;3132;42.622;23.328;2024-02-14T09:11:56;17.10;;;15.60;;
6197;SDS011;3132;42.622;23.328;2024-02-14T09:14:21;16.87;;;15.47;;
6197;SDS011;3132;42.622;23.328;2024-02-14T09:16:48;16.87;;;15.67;;
6197;SDS011;3132;42.622;23.328;2024-02-14T09:19:13;16.23;;;14.70;;
6197;SDS011;3132;42.622;23.328;2024-02-14T09:21:38;16.87;;;15.40;;
6197;SDS011;3132;42.622;23.328;2024-02-14T09:24:04;16.77;;;15.27;;
6197;SDS011;3132;42.622;23.328;2024-02-14T09:26:30;16.83;;;15.50;;
6197;SDS011;3132;42.622;23.328;2024-02-14T09:28:55;16.77;;;15.37;;
6197;SDS011;3132;42.622;23.328;2024-02-14T09:31:21;17.43;;;15.93;;
6197;SDS011;3132;42.622;23.328;2024-02-14T09:33:47;17.23;;;15.63;;
6197;SDS011;3132;42.622;23.328;2024-02-14T09:36:13;17.17;;;15.80;;
6197;SDS011;3132;42.622;23.328;2024-02-14T09:38:39;17.80;;;16.30;;
6197;SDS011;3132;42.622;23.328;2024-02-14T09:41:08;17.37;;;15.77;;
6197;SDS011;3132;42.622;23.328;2024-02-14T09:44:01;16.90;;;15.20;;
6197;SDS011;3132;42.622;23.328;2024-02-14T09:46:28;17.47;;;15.80;;
6197;SDS011;3132;42.622;23.328;2024-02-14T09:48:55;15.90;;;14.53;;
6197;SDS011;3132;42.622;23.328;2024-02-14T09:51:24;16.00;;;14.80;;
6197;SDS011;3132;42.622;23.328;2024-02-14T09:53:49;16.57;;;15.07;;
6197;SDS011;3132;42.622;23.328;2024-02-14T09:56:15;16.87;;;15.47;;
6197;SDS011;3132;42.622;23.328;2024-02-14T09:58:44;16.30;;;14.90;;
6197;SDS011;3132;42.622;23.328;2024-02-14T10:01:15;14.53;;;13.43;;
6197;SDS011;3132;42.622;23.328;2024-02-14T10:03:40;15.97;;;14.73;;
6197;SDS011;3132;42.622;23.328;2024-02-14T10:06:05;16.03;;;14.33;;
6197;SDS011;3132;42.622;23.328;2024-02-14T10:08:31;15.40;;;13.90;;
6197;SDS011;3132;42.622;23.328;2024-02-14T10:10:57;15.57;;;14.27;;
6197;SDS011;3132;42.622;23.328;2024-02-14T10:13:26;15.70;;;14.40;;
6197;SDS011;3132;42.622;23.328;2024-02-14T10:15:52;15.47;;;14.30;;
6197;SDS011;3132;42.622;23.328;2024-02-14T10:18:19;18.00;;;16.50;;
6197;SDS011;3132;42.622;23.328;2024-02-14T10:20:56;15.43;;;14.03;;
6197;SDS011;3132;42.622;23.328;2024-02-14T10:23:22;16.27;;;14.80;;
6197;SDS011;3132;42.622;23.328;2024-02-14T10:25:52;16.43;;;14.80;;
6197;SDS011;3132;42.622;23.328;2024-02-14T10:28:20;16.70;;;15.27;;
6197;SDS011;3132;42.622;23.328;2024-02-14T10:30:46;15.70;;;14.57;;
6197;SDS011;3132;42.622;23.328;2024-02-14T10:33:12;15.47;;;14.27;;
6197;SDS011;3132;42.622;23.328;2024-02-14T10:35:37;15.27;;;14.10;;
6197;SDS011;3132;42.622;23.328;2024-02-14T10:38:06;15.90;;;14.70;;
6197;SDS011;3132;42.622;23.328;2024-02-14T10:40:34;17.23;;;15.70;;
6197;SDS011;3132;42.622;23.328;2024-02-14T10:43:07;15.83;;;14.73;;
6197;SDS011;3132;42.622;23.328;2024-02-14T10:45:34;15.23;;;14.20;;
6197;SDS011;3132;42.622;23.328;2024-02-14T10:48:01;16.43;;;15.13;;
6197;SDS011;3132;42.622;23.328;2024-02-14T10:50:29;16.17;;;14.97;;
6197;SDS011;3132;42.622;23.328;2024-02-14T10:53:03;15.80;;;14.50;;
6197;SDS011;3132;42.622;23.328;2024-02-14T10:55:30;17.07;;;15.43;;
6197;SDS011;3132;42.622;23.328;2024-02-14T10:57:59;16.90;;;15.57;;
6197;SDS011;3132;42.622;23.328;2024-02-14T11:00:26;15.20;;;14.03;;
6197;SDS011;3132;42.622;23.328;2024-02-14T11:02:52;15.73;;;14.30;;
6197;SDS011;3132;42.622;23.328;2024-02-14T11:05:19;15.07;;;13.73;;
6197;SDS011;3132;42.622;23.328;2024-02-14T11:07:49;16.00;;;14.50;;
6197;SDS011;3132;42.622;23.328;2024-02-14T11:10:18;16.13;;;14.90;;
6197;SDS011;3132;42.622;23.328;2024-02-14T11:12:46;17.43;;;16.10;;
6197;SDS011;3132;42.622;23.328;2024-02-14T11:15:18;16.97;;;15.33;;
6197;SDS011;3132;42.622;23.328;2024-02-14T11:17:49;15.90;;;14.67;;
6197;SDS011;3132;42.622;23.328;2024-02-14T11:20:17;18.03;;;16.17;;
6197;SDS011;3132;42.622;23.328;2024-02-14T11:22:53;17.60;;;16.10;;
6197;SDS011;3132;42.622;23.328;2024-02-14T11:25:23;17.07;;;15.67;;
6197;SDS011;3132;42.622;23.328;2024-02-14T11:27:54;16.77;;;15.50;;
6197;SDS011;3132;42.622;23.328;2024-02-14T11:30:26;16.50;;;14.97;;
6197;SDS011;3132;42.622;23.328;2024-02-14T11:32:53;17.60;;;15.90;;
6197;SDS011;3132;42.622;23.328;2024-02-14T11:35:19;19.10;;;17.20;;
6197;SDS011;3132;42.622;23.328;2024-02-14T11:37:44;17.80;;;16.20;;
6197;SDS011;3132;42.622;23.328;2024-02-14T11:40:19;15.57;;;14.37;;
6197;SDS011;3132;42.622;23.328;2024-02-14T11:42:45;16.63;;;15.20;;
6197;SDS011;3132;42.622;23.328;2024-02-14T11:45:12;17.03;;;15.33;;
6197;SDS011;3132;42.622;23.328;2024-02-14T11:47:38;15.73;;;14.27;;
6197;SDS011;3132;42.622;23.328;2024-02-14T11:50:04;17.00;;;15.57;;
6197;SDS011;3132;42.622;23.328;2024-02-14T11:52:30;15.13;;;13.93;;
6197;SDS011;3132;42.622;23.328;2024-02-14T11:54:55;14.83;;;13.43;;
6197;SDS011;3132;42.622;23.328;2024-02-14T11:57:22;15.60;;;14.40;;
6197;SDS011;3132;42.622;23.328;2024-02-14T11:59:51;14.93;;;13.77;;
6197;SDS011;3132;42.622;23.328;2024-02-14T12:02:18;14.97;;;13.87;;
6197;SDS011;3132;42.622;23.328;2024-02-14T12:04:44;15.67;;;14.47;;
6197;SDS011;3132;42.622;23.328;2024-02-14T12:07:11;15.27;;;14.17;;
6197;SDS011;3132;42.622;23.328;2024-02-14T12:09:37;14.53;;;13.33;;
6197;SDS011;3132;42.622;23.328;2024-02-14T12:12:02;15.23;;;13.87;;
6197;SDS011;3132;42.622;23.328;2024-02-14T12:14:29;15.03;;;13.80;;
6197;SDS011;3132;42.622;23.328;2024-02-14T12:17:01;15.77;;;14.53;;
6197;SDS011;3132;42.622;23.328;2024-02-14T12:19:27;13.83;;;12.83;;
6197;SDS011;3132;42.622;23.328;2024-02-14T12:21:53;15.63;;;14.37;;
6197;SDS011;3132;42.622;23.328;2024-02-14T12:24:21;15.33;;;14.07;;
6197;SDS011;3132;42.622;23.328;2024-02-14T12:26:48;14.27;;;13.27;;
6197;SDS011;3132;42.622;23.328;2024-02-14T12:29:13;13.93;;;12.83;;
6197;SDS011;3132;42.622;23.328;2024-02-14T12:31:39;13.57;;;12.53;;
6197;SDS011;3132;42.622;23.328;2024-02-14T12:34:04;15.23;;;14.13;;
6197;SDS011;3132;42.622;23.328;2024-02-14T12:36:30;14.37;;;13.37;;
6197;SDS011;3132;42.622;23.328;2024-02-14T12:38:57;14.27;;;13.23;;
6197;SDS011;3132;42.622;23.328;2024-02-14T12:41:22;13.10;;;12.20;;
6197;SDS011;3132;42.622;23.328;2024-02-14T12:43:49;14.03;;;12.93;;
6197;SDS011;3132;42.622;23.328;2024-02-14T12:46:15;13.87;;;12.93;;
6197;SDS011;3132;42.622;23.328;2024-02-14T12:48:40;13.87;;;12.93;;
6197;SDS011;3132;42.622;23.328;2024-02-14T12:51:06;16.47;;;15.07;;
6197;SDS011;3132;42.622;23.328;2024-02-14T12:53:32;14.97;;;13.67;;
6197;SDS011;3132;42.622;23.328;2024-02-14T12:55:57;13.93;;;12.93;;
6197;SDS011;3132;42.622;23.328;2024-02-14T12:58:23;13.97;;;12.87;;
6197;SDS011;3132;42.622;23.328;2024-02-14T13:00:48;13.60;;;12.63;;
6197;SDS011;3132;42.622;23.328;2024-02-14T13:03:14;14.47;;;13.27;;
6197;SDS011;3132;42.622;23.328;2024-02-14T13:05:39;15.00;;;13.80;;
6197;SDS011;3132;42.622;23.328;2024-02-14T13:08:05;14.33;;;13.33;;
6197;SDS011;3132;42.622;23.328;2024-02-14T13:10:31;14.87;;;13.43;;
6197;SDS011;3132;42.622;23.328;2024-02-14T13:12:57;14.17;;;13.27;;
6197;SDS011;3132;42.622;23.328;2024-02-14T13:15:22;15.03;;;14.10;;
6197;SDS011;3132;42.622;23.328;2024-02-14T13:17:48;14.10;;;13.10;;
6197;SDS011;3132;42.622;23.328;2024-02-14T13:20:13;15.20;;;14.00;;
6197;SDS011;3132;42.622;23.328;2024-02-14T13:22:40;14.17;;;13.07;;
6197;SDS011;3132;42.622;23.328;2024-02-14T13:25:06;15.03;;;13.90;;
6197;SDS011;3132;42.622;23.328;2024-02-14T13:27:32;15.10;;;13.80;;
6197;SDS011;3132;42.622;23.328;2024-02-14T13:29:58;15.67;;;14.30;;
6197;SDS011;3132;42.622;23.328;2024-02-14T13:32:25;15.47;;;14.37;;
6197;SDS011;3132;42.622;23.328;2024-02-14T13:34:50;13.50;;;12.40;;
6197;SDS011;3132;42.622;23.328;2024-02-14T13:37:15;14.80;;;13.40;;
6197;SDS011;3132;42.622;23.328;2024-02-14T13:39:41;14.07;;;13.07;;
6197;SDS011;3132;42.622;23.328;2024-02-14T13:42:06;14.90;;;13.73;;
6197;SDS011;3132;42.622;23.328;2024-02-14T13:44:33;13.83;;;12.83;;
6197;SDS011;3132;42.622;23.328;2024-02-14T13:46:58;14.47;;;13.33;;
6197;SDS011;3132;42.622;23.328;2024-02-14T13:49:24;15.00;;;13.90;;
6197;SDS011;3132;42.622;23.328;2024-02-14T13:51:51;14.03;;;12.93;;
6197;SDS011;3132;42.622;23.328;2024-02-14T13:54:17;15.07;;;13.67;;
6197;SDS011;3132;42.622;23.328;2024-02-14T13:56:43;13.87;;;13.07;;
6197;SDS011;3132;42.622;23.328;2024-02-14T13:59:09;13.57;;;12.47;;
6197;SDS011;3132;42.622;23.328;2024-02-14T14:01:35;13.60;;;12.33;;
6197;SDS011;3132;42.622;23.328;2024-02-14T14:04:01;14.73;;;13.63;;
6197;SDS011;3132;42.622;23.328;2024-02-14T14:06:26;13.20;;;12.27;;
6197;SDS011;3132;42.622;23.328;2024-02-14T14:08:52;14.87;;;13.77;;
6197;SDS011;3132;42.622;23.328;2024-02-14T14:11:17;14.27;;;13.07;;
6197;SDS011;3132;42.622;23.328;2024-02-14T14:13:42;13.77;;;12.67;;
6197;SDS011;3132;42.622;23.328;2024-02-14T14:16:08;14.23;;;13.23;;
6197;SDS011;3132;42.622;23.328;2024-02-14T14:18:35;14.50;;;13.30;;
6197;SDS011;3132;42.622;23.328;2024-02-14T14:21:00;12.23;;;11.43;;
6197;SDS011;3132;42.622;23.328;2024-02-14T14:23:26;14.37;;;13.03;;
6197;SDS011;3132;42.622;23.328;2024-02-14T14:25:51;13.90;;;12.93;;